Time;durP1;ratioP1;P1;durP2;ratioP2;P2;SDS_P1;SDS_P2;PMS_P1;PMS_P2;Temp;Humidity;BMP_temperature;BMP_pressure;BME280_temperature;BME280_humidity;BME280_pressure;Samples;Min_cycle;Max_cycle;Signal;HPM_P1;HPM_P2
2021/08/17 00:01:52;;;;;;;5.80;3.30;;;;;;;;;;5015281;28;20189;-89
2021/08/17 00:04:20;;;;;;;5.20;3.13;;;;;;;;;;5016540;28;20178;-88
2021/08/17 00:06:47;;;;;;;6.67;3.87;;;;;;;;;;4994234;28;20228;-89
2021/08/17 00:09:15;;;;;;;7.20;3.60;;;;;;;;;;5031274;28;20180;-88
2021/08/17 00:11:42;;;;;;;4.67;3.07;;;;;;;;;;5016225;28;20266;-88
2021/08/17 00:14:10;;;;;;;6.73;3.23;;;;;;;;;;5015730;28;20185;-89
2021/08/17 00:16:37;;;;;;;5.70;3.57;;;;;;;;;;5013487;28;20198;-88
2021/08/17 00:19:03;;;;;;;8.00;3.03;;;;;;;;;;5014026;28;20198;-89
2021/08/17 00:21:29;;;;;;;6.40;3.10;;;;;;;;;;5029330;28;20190;-88
2021/08/17 00:23:56;;;;;;;6.80;3.70;;;;;;;;;;5017255;28;20194;-88
2021/08/17 00:26:22;;;;;;;6.10;3.03;;;;;;;;;;5048405;28;20602;-88
2021/08/17 00:28:49;;;;;;;5.10;3.30;;;;;;;;;;5017225;28;20548;-88
2021/08/17 00:31:15;;;;;;;5.80;3.27;;;;;;;;;;5018499;28;20197;-88
2021/08/17 00:33:42;;;;;;;5.03;2.97;;;;;;;;;;5021350;28;20647;-88
2021/08/17 00:36:08;;;;;;;9.53;3.90;;;;;;;;;;5033487;28;20209;-88
2021/08/17 00:38:41;;;;;;;6.47;3.73;;;;;;;;;;5018319;28;20600;-88
2021/08/17 00:41:11;;;;;;;4.53;3.07;;;;;;;;;;5016344;28;20260;-89
2021/08/17 00:43:39;;;;;;;8.43;3.63;;;;;;;;;;5020016;28;20182;-88
2021/08/17 00:46:05;;;;;;;6.97;4.13;;;;;;;;;;5036678;28;20178;-89
2021/08/17 00:48:33;;;;;;;7.47;4.40;;;;;;;;;;5034053;28;20458;-89
2021/08/17 00:51:00;;;;;;;5.13;3.43;;;;;;;;;;5019963;28;20281;-88
2021/08/17 00:53:27;;;;;;;6.70;4.10;;;;;;;;;;5020232;28;20631;-89
2021/08/17 00:55:53;;;;;;;5.73;3.47;;;;;;;;;;5019785;28;20214;-89
2021/08/17 00:58:19;;;;;;;6.03;3.67;;;;;;;;;;5019144;28;20181;-88
2021/08/17 01:00:48;;;;;;;7.37;3.53;;;;;;;;;;5024755;28;20174;-89
2021/08/17 01:03:14;;;;;;;8.20;3.63;;;;;;;;;;5020125;28;20174;-88
2021/08/17 01:05:40;;;;;;;6.63;3.90;;;;;;;;;;5018644;28;20235;-88
2021/08/17 01:08:08;;;;;;;6.43;3.17;;;;;;;;;;5014439;28;20217;-88
2021/08/17 01:10:34;;;;;;;6.40;3.60;;;;;;;;;;5031915;28;20192;-89
2021/08/17 01:13:00;;;;;;;6.57;4.10;;;;;;;;;;5034114;28;20190;-88
2021/08/17 01:15:26;;;;;;;7.83;4.90;;;;;;;;;;5034040;28;20185;-88
2021/08/17 01:17:53;;;;;;;5.77;4.00;;;;;;;;;;5016127;28;20254;-89
2021/08/17 01:20:19;;;;;;;9.53;4.73;;;;;;;;;;5013608;28;20286;-89
2021/08/17 01:22:47;;;;;;;7.80;4.30;;;;;;;;;;5011290;28;20175;-89
2021/08/17 01:25:13;;;;;;;10.77;4.23;;;;;;;;;;5024661;28;20228;-89
2021/08/17 01:27:40;;;;;;;13.10;5.33;;;;;;;;;;5015196;28;20661;-89
2021/08/17 01:30:07;;;;;;;7.10;5.00;;;;;;;;;;5015486;28;20178;-88
2021/08/17 01:32:33;;;;;;;8.23;5.23;;;;;;;;;;5017503;28;20181;-88
2021/08/17 01:34:59;;;;;;;7.77;5.03;;;;;;;;;;5016887;28;20197;-88
2021/08/17 01:37:25;;;;;;;8.27;5.33;;;;;;;;;;5018573;28;20186;-89
2021/08/17 01:40:05;;;;;;;8.73;5.50;;;;;;;;;;5019801;28;20212;-89
2021/08/17 01:42:32;;;;;;;9.00;5.97;;;;;;;;;;5020431;28;20197;-88
2021/08/17 01:44:58;;;;;;;9.70;6.70;;;;;;;;;;5018741;28;20177;-88
2021/08/17 01:47:25;;;;;;;10.67;6.40;;;;;;;;;;5019014;28;20296;-88
2021/08/17 01:49:51;;;;;;;11.60;6.97;;;;;;;;;;5016697;28;20182;-89
2021/08/17 01:52:18;;;;;;;10.57;6.53;;;;;;;;;;5021762;28;20578;-88
2021/08/17 01:54:44;;;;;;;11.97;7.47;;;;;;;;;;5012031;28;20586;-88
2021/08/17 01:57:10;;;;;;;11.00;6.37;;;;;;;;;;5021315;28;20189;-88
2021/08/17 01:59:36;;;;;;;14.93;7.80;;;;;;;;;;5029387;28;20179;-87
2021/08/17 02:02:02;;;;;;;11.97;7.33;;;;;;;;;;5014459;28;20290;-88
2021/08/17 02:04:28;;;;;;;14.80;8.40;;;;;;;;;;5012966;28;20215;-88
2021/08/17 02:06:55;;;;;;;11.20;7.27;;;;;;;;;;5034741;28;20221;-88
2021/08/17 02:09:21;;;;;;;11.83;7.50;;;;;;;;;;5017075;28;20216;-88
2021/08/17 02:11:47;;;;;;;12.40;8.60;;;;;;;;;;5040010;28;20577;-88
2021/08/17 02:14:13;;;;;;;11.57;8.20;;;;;;;;;;5027788;28;20181;-89
2021/08/17 02:16:39;;;;;;;17.63;9.53;;;;;;;;;;5013836;28;20211;-89
2021/08/17 02:19:05;;;;;;;12.27;8.43;;;;;;;;;;5013266;28;20216;-89
2021/08/17 02:21:31;;;;;;;13.63;9.10;;;;;;;;;;5014421;28;20273;-89
2021/08/17 02:23:57;;;;;;;14.43;10.17;;;;;;;;;;5013029;28;20842;-89
2021/08/17 02:26:23;;;;;;;14.03;10.50;;;;;;;;;;5011847;28;20300;-88
2021/08/17 02:28:49;;;;;;;13.93;9.37;;;;;;;;;;5012753;28;20660;-89
2021/08/17 02:31:15;;;;;;;15.93;10.07;;;;;;;;;;5012515;28;20177;-88
2021/08/17 02:33:41;;;;;;;16.03;10.23;;;;;;;;;;5014930;28;20210;-89
2021/08/17 02:36:08;;;;;;;12.00;9.10;;;;;;;;;;5012812;28;20181;-89
2021/08/17 02:38:34;;;;;;;15.03;10.60;;;;;;;;;;5014416;28;20209;-88
2021/08/17 02:41:00;;;;;;;14.67;9.03;;;;;;;;;;5022000;28;20252;-88
2021/08/17 02:43:26;;;;;;;14.77;10.03;;;;;;;;;;5013426;28;20178;-88
2021/08/17 02:45:53;;;;;;;12.73;9.87;;;;;;;;;;5016894;28;20240;-88
2021/08/17 02:48:19;;;;;;;16.53;11.47;;;;;;;;;;5013577;28;20249;-89
2021/08/17 02:50:45;;;;;;;16.50;11.03;;;;;;;;;;5013243;28;20280;-89
2021/08/17 02:53:11;;;;;;;17.03;11.67;;;;;;;;;;5013890;28;20208;-89
2021/08/17 02:55:37;;;;;;;18.03;11.60;;;;;;;;;;5008783;28;20704;-88
2021/08/17 02:58:07;;;;;;;16.13;10.70;;;;;;;;;;4994523;28;20654;-88
2021/08/17 03:00:33;;;;;;;19.63;11.87;;;;;;;;;;5000498;28;20175;-89
2021/08/17 03:02:59;;;;;;;19.03;11.40;;;;;;;;;;5022032;28;20182;-88
2021/08/17 03:05:25;;;;;;;17.13;12.20;;;;;;;;;;4994920;28;20185;-89
2021/08/17 03:07:52;;;;;;;20.53;12.10;;;;;;;;;;5002646;28;20214;-89
2021/08/17 03:10:19;;;;;;;20.03;12.47;;;;;;;;;;5014453;28;20186;-89
2021/08/17 03:12:45;;;;;;;20.30;12.03;;;;;;;;;;5008808;28;20186;-89
2021/08/17 03:15:12;;;;;;;20.37;12.10;;;;;;;;;;5003322;28;20187;-89
2021/08/17 03:17:38;;;;;;;18.17;12.27;;;;;;;;;;4998256;28;20193;-89
2021/08/17 03:20:08;;;;;;;20.13;12.70;;;;;;;;;;5001239;28;20202;-89
2021/08/17 03:22:35;;;;;;;20.63;12.73;;;;;;;;;;4996408;28;20196;-89
2021/08/17 03:25:01;;;;;;;18.23;11.97;;;;;;;;;;4998302;28;20194;-89
2021/08/17 03:27:27;;;;;;;16.77;12.23;;;;;;;;;;4995814;28;20257;-89
2021/08/17 03:29:53;;;;;;;19.93;13.03;;;;;;;;;;5003753;28;20295;-89
2021/08/17 03:32:19;;;;;;;20.73;12.97;;;;;;;;;;5003133;28;20186;-89
2021/08/17 03:34:45;;;;;;;20.47;13.23;;;;;;;;;;4995285;28;20694;-89
2021/08/17 03:37:11;;;;;;;19.83;13.17;;;;;;;;;;4996065;28;20182;-88
2021/08/17 03:39:37;;;;;;;20.80;13.27;;;;;;;;;;5005586;28;20613;-90
2021/08/17 03:42:04;;;;;;;17.63;13.37;;;;;;;;;;5001111;28;20676;-89
2021/08/17 03:44:30;;;;;;;20.83;12.80;;;;;;;;;;5015165;28;20186;-89
2021/08/17 03:46:56;;;;;;;19.77;13.67;;;;;;;;;;4996802;28;20211;-89
2021/08/17 03:49:22;;;;;;;19.40;12.80;;;;;;;;;;5011935;28;20182;-88
2021/08/17 03:51:48;;;;;;;21.07;12.93;;;;;;;;;;5003330;28;20190;-88
2021/08/17 03:54:14;;;;;;;19.87;13.90;;;;;;;;;;4994500;28;20605;-88
2021/08/17 03:56:40;;;;;;;19.63;13.07;;;;;;;;;;5010909;28;20283;-89
2021/08/17 03:59:06;;;;;;;21.57;13.37;;;;;;;;;;5011023;28;20284;-89
2021/08/17 04:01:32;;;;;;;19.40;13.43;;;;;;;;;;5027754;28;20185;-89
2021/08/17 04:03:58;;;;;;;20.80;13.10;;;;;;;;;;5013278;28;20658;-89
2021/08/17 04:06:24;;;;;;;21.17;13.87;;;;;;;;;;5015575;28;20699;-89
2021/08/17 04:08:52;;;;;;;21.33;13.10;;;;;;;;;;5016143;28;20182;-89
2021/08/17 04:11:18;;;;;;;20.60;12.43;;;;;;;;;;5013262;28;20501;-88
2021/08/17 04:13:44;;;;;;;23.30;13.23;;;;;;;;;;5013418;28;20184;-89
2021/08/17 04:16:10;;;;;;;19.93;12.67;;;;;;;;;;5012851;28;20174;-88
2021/08/17 04:18:36;;;;;;;22.03;14.47;;;;;;;;;;5027703;28;20197;-90
2021/08/17 04:21:02;;;;;;;21.10;13.53;;;;;;;;;;5013098;28;20525;-88
2021/08/17 04:23:28;;;;;;;20.80;12.83;;;;;;;;;;5013069;28;20193;-89
2021/08/17 04:25:54;;;;;;;18.53;13.07;;;;;;;;;;5016909;28;20181;-90
2021/08/17 04:28:21;;;;;;;20.37;12.83;;;;;;;;;;5015568;28;20220;-89
2021/08/17 04:30:47;;;;;;;18.70;12.23;;;;;;;;;;5014095;28;20181;-89
2021/08/17 04:33:13;;;;;;;15.60;12.13;;;;;;;;;;5015081;28;20201;-89
2021/08/17 04:35:39;;;;;;;19.83;12.07;;;;;;;;;;5014422;28;20185;-89
2021/08/17 04:38:05;;;;;;;18.03;11.83;;;;;;;;;;5014670;28;20193;-89
2021/08/17 04:40:31;;;;;;;16.87;11.40;;;;;;;;;;5014772;28;20209;-89
2021/08/17 04:42:57;;;;;;;18.63;11.63;;;;;;;;;;5010949;28;20196;-88
2021/08/17 04:45:24;;;;;;;19.47;12.13;;;;;;;;;;5015176;28;20475;-90
2021/08/17 04:47:52;;;;;;;17.47;12.67;;;;;;;;;;5015692;28;20372;-90
2021/08/17 04:50:19;;;;;;;16.73;11.83;;;;;;;;;;5017044;28;20703;-88
2021/08/17 04:52:46;;;;;;;19.77;12.77;;;;;;;;;;5034026;28;20192;-88
2021/08/17 04:55:12;;;;;;;19.83;12.67;;;;;;;;;;5028263;28;20316;-88
2021/08/17 04:57:51;;;;;;;20.67;12.77;;;;;;;;;;5013509;28;20528;-87
2021/08/17 05:00:17;;;;;;;19.07;12.17;;;;;;;;;;5014316;28;20273;-87
2021/08/17 05:02:43;;;;;;;20.50;12.90;;;;;;;;;;5031973;28;20178;-86
2021/08/17 05:05:09;;;;;;;20.27;12.47;;;;;;;;;;5010360;28;20182;-86
2021/08/17 05:07:39;;;;;;;18.47;12.20;;;;;;;;;;5029298;28;20565;-87
2021/08/17 05:10:09;;;;;;;17.63;11.50;;;;;;;;;;5015156;28;20190;-87
2021/08/17 05:12:35;;;;;;;18.47;11.57;;;;;;;;;;5015021;28;20193;-87
2021/08/17 05:15:02;;;;;;;17.87;12.00;;;;;;;;;;5015005;28;20259;-87
2021/08/17 05:17:28;;;;;;;17.83;11.70;;;;;;;;;;5031252;28;20194;-86
2021/08/17 05:19:55;;;;;;;18.30;12.20;;;;;;;;;;5002095;28;20194;-87
2021/08/17 05:22:21;;;;;;;21.17;13.63;;;;;;;;;;5015927;28;20185;-85
2021/08/17 05:24:47;;;;;;;19.63;12.33;;;;;;;;;;5013790;28;20182;-85
2021/08/17 05:27:13;;;;;;;18.40;12.23;;;;;;;;;;5007000;28;20228;-87
2021/08/17 05:29:39;;;;;;;18.07;13.07;;;;;;;;;;5038609;28;20178;-86
2021/08/17 05:32:05;;;;;;;21.30;12.60;;;;;;;;;;5020559;28;20179;-88
2021/08/17 05:34:32;;;;;;;19.97;12.97;;;;;;;;;;5020457;28;20183;-87
2021/08/17 05:36:58;;;;;;;16.93;12.00;;;;;;;;;;5036826;28;20194;-85
2021/08/17 05:39:24;;;;;;;18.77;13.27;;;;;;;;;;5022508;28;20538;-87
2021/08/17 05:41:51;;;;;;;20.50;13.90;;;;;;;;;;5037743;28;20181;-87
2021/08/17 05:44:17;;;;;;;20.40;13.90;;;;;;;;;;5034916;28;20194;-86
2021/08/17 05:46:43;;;;;;;17.87;13.73;;;;;;;;;;5037303;28;20205;-87
2021/08/17 05:49:09;;;;;;;17.30;12.67;;;;;;;;;;5020372;28;20178;-87
2021/08/17 05:51:36;;;;;;;20.17;13.07;;;;;;;;;;5021286;28;20276;-87
2021/08/17 05:54:02;;;;;;;17.73;13.77;;;;;;;;;;5019729;28;20675;-86
2021/08/17 05:56:29;;;;;;;18.53;13.47;;;;;;;;;;4997876;28;1140965;-87
2021/08/17 05:58:55;;;;;;;19.03;13.27;;;;;;;;;;5020175;28;20618;-87
2021/08/17 06:01:22;;;;;;;18.73;13.53;;;;;;;;;;5040677;28;20182;-87
2021/08/17 06:03:48;;;;;;;20.13;13.30;;;;;;;;;;5046756;28;20252;-87
2021/08/17 06:06:14;;;;;;;20.87;14.27;;;;;;;;;;5048346;28;20184;-88
2021/08/17 06:08:40;;;;;;;19.13;13.23;;;;;;;;;;5029499;28;20185;-88
2021/08/17 06:11:06;;;;;;;16.93;12.57;;;;;;;;;;5031247;28;20281;-85
2021/08/17 06:13:32;;;;;;;18.20;12.67;;;;;;;;;;5030428;28;20236;-87
2021/08/17 06:15:58;;;;;;;17.13;13.47;;;;;;;;;;5013563;28;20202;-86
2021/08/17 06:18:26;;;;;;;18.57;12.83;;;;;;;;;;5029038;28;20634;-87
2021/08/17 06:20:52;;;;;;;19.37;12.60;;;;;;;;;;5030061;28;20201;-87
2021/08/17 06:23:18;;;;;;;19.57;12.27;;;;;;;;;;5007475;28;20199;-87
2021/08/17 06:25:44;;;;;;;17.87;12.43;;;;;;;;;;5023575;28;20208;-87
2021/08/17 06:28:10;;;;;;;21.13;12.80;;;;;;;;;;5019118;28;20205;-87
2021/08/17 06:30:37;;;;;;;20.37;12.87;;;;;;;;;;5017227;28;20265;-87
2021/08/17 06:33:03;;;;;;;22.17;13.23;;;;;;;;;;5018024;28;20173;-86
2021/08/17 06:35:30;;;;;;;18.07;12.70;;;;;;;;;;5013562;28;20266;-87
2021/08/17 06:37:56;;;;;;;20.63;13.23;;;;;;;;;;5005761;28;20195;-87
2021/08/17 06:40:22;;;;;;;20.23;13.03;;;;;;;;;;5025390;28;20191;-86
2021/08/17 06:42:48;;;;;;;19.87;13.60;;;;;;;;;;5034088;28;20178;-86
2021/08/17 06:45:14;;;;;;;19.50;13.03;;;;;;;;;;5030584;28;20185;-86
2021/08/17 06:47:48;;;;;;;16.80;12.10;;;;;;;;;;5038254;28;20204;-86
2021/08/17 06:50:14;;;;;;;19.17;12.47;;;;;;;;;;5011450;28;20232;-87
2021/08/17 06:52:40;;;;;;;22.13;14.10;;;;;;;;;;5019541;28;20182;-86
2021/08/17 06:55:07;;;;;;;24.63;14.00;;;;;;;;;;5028619;28;20229;-87
2021/08/17 06:57:33;;;;;;;18.40;13.30;;;;;;;;;;5039568;28;20238;-87
2021/08/17 06:59:59;;;;;;;21.10;13.60;;;;;;;;;;5020613;28;20190;-87
2021/08/17 07:02:25;;;;;;;22.67;14.30;;;;;;;;;;5003532;28;20281;-86
2021/08/17 07:04:51;;;;;;;20.70;13.53;;;;;;;;;;5007159;28;20292;-86
2021/08/17 07:07:17;;;;;;;20.73;12.03;;;;;;;;;;5018848;28;20340;-85
2021/08/17 07:09:43;;;;;;;22.30;13.80;;;;;;;;;;5024460;28;20170;-87
2021/08/17 07:12:12;;;;;;;21.73;12.97;;;;;;;;;;5018032;28;20200;-87
2021/08/17 07:14:38;;;;;;;20.50;12.57;;;;;;;;;;5019872;28;20178;-87
2021/08/17 07:17:04;;;;;;;19.00;12.13;;;;;;;;;;5018457;28;20240;-90
2021/08/17 07:19:31;;;;;;;19.83;13.23;;;;;;;;;;5020208;28;20189;-88
2021/08/17 07:21:57;;;;;;;21.33;13.17;;;;;;;;;;5019118;28;20190;-89
2021/08/17 07:24:24;;;;;;;22.40;12.90;;;;;;;;;;5016601;28;20334;-86
2021/08/17 07:26:50;;;;;;;19.50;13.87;;;;;;;;;;5018007;28;20206;-87
2021/08/17 07:29:16;;;;;;;22.03;13.63;;;;;;;;;;5017619;28;20178;-87
2021/08/17 07:31:42;;;;;;;17.80;12.13;;;;;;;;;;5033396;28;20273;-86
2021/08/17 07:34:09;;;;;;;22.03;14.23;;;;;;;;;;5021721;28;20178;-87
2021/08/17 07:36:36;;;;;;;19.73;13.13;;;;;;;;;;5018914;28;20185;-87
2021/08/17 07:39:09;;;;;;;22.90;13.40;;;;;;;;;;5028272;28;20323;-87
2021/08/17 07:41:35;;;;;;;21.63;14.03;;;;;;;;;;5025429;28;20266;-88
2021/08/17 07:44:02;;;;;;;19.90;12.10;;;;;;;;;;5021507;28;20221;-86
2021/08/17 07:46:28;;;;;;;18.87;12.57;;;;;;;;;;5036284;28;20301;-88
2021/08/17 07:48:55;;;;;;;19.57;12.13;;;;;;;;;;5022218;28;20177;-87
2021/08/17 07:51:21;;;;;;;21.20;13.43;;;;;;;;;;5017243;28;20179;-88
2021/08/17 07:53:47;;;;;;;17.30;11.80;;;;;;;;;;5000542;28;20224;-87
2021/08/17 07:56:13;;;;;;;21.73;13.37;;;;;;;;;;5036029;28;20233;-87
2021/08/17 07:58:40;;;;;;;23.70;14.03;;;;;;;;;;5036391;28;20227;-87
2021/08/17 08:01:06;;;;;;;18.27;12.10;;;;;;;;;;5017929;28;20185;-86
2021/08/17 08:03:34;;;;;;;17.00;12.13;;;;;;;;;;5018284;28;20317;-86
2021/08/17 08:06:00;;;;;;;19.30;12.13;;;;;;;;;;5029801;28;20205;-87
2021/08/17 08:08:26;;;;;;;18.70;12.13;;;;;;;;;;5013656;28;20300;-87
2021/08/17 08:10:53;;;;;;;19.17;12.63;;;;;;;;;;5013303;28;20186;-87
2021/08/17 08:13:19;;;;;;;18.20;13.00;;;;;;;;;;5018128;28;20228;-87
2021/08/17 08:15:45;;;;;;;21.27;13.40;;;;;;;;;;5015884;28;20182;-87
2021/08/17 08:18:11;;;;;;;21.20;13.37;;;;;;;;;;5016111;28;20178;-87
2021/08/17 08:20:37;;;;;;;22.70;13.00;;;;;;;;;;5014936;28;20261;-86
2021/08/17 08:23:05;;;;;;;18.87;11.63;;;;;;;;;;5015860;28;20228;-86
2021/08/17 08:25:31;;;;;;;21.47;14.20;;;;;;;;;;5014648;28;20186;-86
2021/08/17 08:27:57;;;;;;;20.20;13.37;;;;;;;;;;5018146;28;20198;-87
2021/08/17 08:30:23;;;;;;;22.33;13.30;;;;;;;;;;5016564;28;20196;-86
2021/08/17 08:32:49;;;;;;;19.57;12.83;;;;;;;;;;5036760;28;20184;-87
2021/08/17 08:35:16;;;;;;;20.67;13.87;;;;;;;;;;5018434;28;20269;-87
2021/08/17 08:37:42;;;;;;;20.60;13.30;;;;;;;;;;5016410;28;20173;-87
2021/08/17 08:40:09;;;;;;;21.17;13.87;;;;;;;;;;5016404;28;20679;-87
2021/08/17 08:42:35;;;;;;;23.40;13.27;;;;;;;;;;5016078;28;20193;-87
2021/08/17 08:45:01;;;;;;;20.80;13.03;;;;;;;;;;5016489;28;20209;-87
2021/08/17 08:47:28;;;;;;;19.83;13.17;;;;;;;;;;5018643;28;20202;-88
2021/08/17 08:49:54;;;;;;;21.33;13.80;;;;;;;;;;5017322;28;20212;-87
2021/08/17 08:52:21;;;;;;;22.20;14.30;;;;;;;;;;5014531;28;20185;-88
2021/08/17 08:54:47;;;;;;;24.17;13.83;;;;;;;;;;5017750;28;20393;-87
2021/08/17 08:57:13;;;;;;;22.60;13.43;;;;;;;;;;5017805;28;20228;-86
2021/08/17 08:59:41;;;;;;;18.83;12.17;;;;;;;;;;5001870;28;20182;-87
2021/08/17 09:02:11;;;;;;;23.40;14.83;;;;;;;;;;5018300;28;20176;-86
2021/08/17 09:04:38;;;;;;;19.40;14.13;;;;;;;;;;5017950;28;20264;-86
2021/08/17 09:07:04;;;;;;;19.10;13.43;;;;;;;;;;5018115;28;20222;-86
2021/08/17 09:09:30;;;;;;;22.17;14.17;;;;;;;;;;5017709;28;20261;-86
2021/08/17 09:11:58;;;;;;;18.07;13.50;;;;;;;;;;5018395;28;20204;-87
2021/08/17 09:14:24;;;;;;;21.50;13.37;;;;;;;;;;5017046;28;20201;-87
2021/08/17 09:16:53;;;;;;;19.47;13.50;;;;;;;;;;5034041;28;20594;-87
2021/08/17 09:19:28;;;;;;;20.47;13.30;;;;;;;;;;5016416;28;20177;-86
2021/08/17 09:21:55;;;;;;;19.70;13.73;;;;;;;;;;5019652;28;20236;-89
2021/08/17 09:24:22;;;;;;;19.17;13.27;;;;;;;;;;5029159;28;20268;-86
2021/08/17 09:27:08;;;;;;;16.17;12.00;;;;;;;;;;5015978;28;20259;-85
2021/08/17 09:29:39;;;;;;;19.93;13.00;;;;;;;;;;5010291;28;20189;-83
2021/08/17 09:32:27;;;;;;;19.70;14.47;;;;;;;;;;5018207;28;20209;-82
2021/08/17 09:34:55;;;;;;;23.83;14.03;;;;;;;;;;5023661;28;20209;-84
2021/08/17 09:37:21;;;;;;;22.20;13.83;;;;;;;;;;5017957;28;20216;-84
2021/08/17 09:39:48;;;;;;;16.60;12.50;;;;;;;;;;5035521;28;20189;-84
2021/08/17 09:42:16;;;;;;;23.33;14.53;;;;;;;;;;5034147;28;20208;-84
2021/08/17 09:44:42;;;;;;;19.17;12.63;;;;;;;;;;5019652;28;20181;-84
2021/08/17 09:47:08;;;;;;;21.83;13.60;;;;;;;;;;5017662;28;20267;-85
2021/08/17 09:49:35;;;;;;;19.97;12.90;;;;;;;;;;5016443;28;20289;-84
2021/08/17 09:52:12;;;;;;;18.30;11.93;;;;;;;;;;5014677;28;20189;-84
2021/08/17 09:54:40;;;;;;;18.93;12.50;;;;;;;;;;5017095;28;20614;-86
2021/08/17 09:57:07;;;;;;;18.30;12.20;;;;;;;;;;5017246;28;20216;-87
2021/08/17 09:59:34;;;;;;;23.93;12.17;;;;;;;;;;5017234;28;20192;-86
2021/08/17 10:02:00;;;;;;;17.23;11.30;;;;;;;;;;5016072;28;21034;-87
2021/08/17 10:04:27;;;;;;;15.83;10.77;;;;;;;;;;5018319;28;20188;-86
2021/08/17 10:06:54;;;;;;;16.70;10.33;;;;;;;;;;5017810;28;20317;-86
2021/08/17 10:09:21;;;;;;;15.83;10.47;;;;;;;;;;5017383;28;20315;-86
2021/08/17 10:11:47;;;;;;;15.83;10.33;;;;;;;;;;5017882;28;20170;-86
2021/08/17 10:14:14;;;;;;;17.43;10.50;;;;;;;;;;5016751;28;20185;-86
2021/08/17 10:16:41;;;;;;;18.40;10.73;;;;;;;;;;5033226;28;20616;-86
2021/08/17 10:19:08;;;;;;;14.40;10.30;;;;;;;;;;5016303;28;20517;-86
2021/08/17 10:21:35;;;;;;;17.43;10.07;;;;;;;;;;5018113;28;20180;-86
2021/08/17 10:24:21;;;;;;;16.00;9.67;;;;;;;;;;5011316;28;20252;-86
2021/08/17 10:26:47;;;;;;;14.83;10.53;;;;;;;;;;5011371;28;20268;-85
2021/08/17 10:29:31;;;;;;;20.17;11.10;;;;;;;;;;5018131;28;20174;-85
2021/08/17 10:31:57;;;;;;;13.80;9.10;;;;;;;;;;5016690;28;20197;-86
2021/08/17 10:34:36;;;;;;;16.20;9.63;;;;;;;;;;5018594;28;20239;-85
2021/08/17 10:37:21;;;;;;;16.93;9.77;;;;;;;;;;5035472;28;20194;-86
2021/08/17 10:39:47;;;;;;;19.43;9.97;;;;;;;;;;5020158;28;20509;-85
2021/08/17 10:42:22;;;;;;;15.13;8.80;;;;;;;;;;5019366;28;20182;-85
2021/08/17 10:44:48;;;;;;;17.60;10.47;;;;;;;;;;5020502;28;20196;-83
2021/08/17 10:47:29;;;;;;;13.77;9.50;;;;;;;;;;5035652;28;20201;-86
2021/08/17 10:49:55;;;;;;;16.83;9.47;;;;;;;;;;5033979;28;20158;-82
2021/08/17 10:52:27;;;;;;;18.53;10.00;;;;;;;;;;5017996;28;20192;-83
2021/08/17 10:55:12;;;;;;;16.53;8.47;;;;;;;;;;5015837;28;20651;-83
2021/08/17 10:57:49;;;;;;;11.37;8.10;;;;;;;;;;5016433;28;20314;-84
2021/08/17 11:00:35;;;;;;;11.07;8.20;;;;;;;;;;5021376;28;20236;-85
2021/08/17 11:03:04;;;;;;;10.60;7.83;;;;;;;;;;5015753;28;20202;-83
2021/08/17 11:05:49;;;;;;;13.97;8.33;;;;;;;;;;5015283;28;20177;-86
2021/08/17 11:08:34;;;;;;;11.97;7.50;;;;;;;;;;4999222;28;20337;-85
2021/08/17 11:11:01;;;;;;;13.83;7.87;;;;;;;;;;5012537;28;20217;-86
2021/08/17 11:13:27;;;;;;;11.63;7.73;;;;;;;;;;5026857;28;20186;-85
2021/08/17 11:16:08;;;;;;;13.37;7.20;;;;;;;;;;5015864;28;20542;-85
2021/08/17 11:18:53;;;;;;;13.60;7.53;;;;;;;;;;5015518;28;20324;-84
2021/08/17 11:21:31;;;;;;;12.50;7.27;;;;;;;;;;5012861;28;20256;-85
2021/08/17 11:24:10;;;;;;;12.73;8.10;;;;;;;;;;4997160;28;20190;-86
2021/08/17 11:26:37;;;;;;;10.00;7.50;;;;;;;;;;4999074;28;20167;-86
2021/08/17 11:29:03;;;;;;;10.23;7.53;;;;;;;;;;5016064;28;20524;-85
2021/08/17 11:31:29;;;;;;;12.37;7.83;;;;;;;;;;5031681;28;20184;-86
2021/08/17 11:34:12;;;;;;;15.83;7.33;;;;;;;;;;5016090;28;20186;-86
2021/08/17 11:36:38;;;;;;;8.97;6.93;;;;;;;;;;5015135;28;20253;-86
2021/08/17 11:39:17;;;;;;;7.77;6.50;;;;;;;;;;5015024;28;20213;-88
2021/08/17 11:41:43;;;;;;;8.03;6.77;;;;;;;;;;5006995;28;20629;-86
2021/08/17 11:44:10;;;;;;;10.40;6.40;;;;;;;;;;5015188;28;20589;-86
2021/08/17 11:46:36;;;;;;;9.13;6.67;;;;;;;;;;5031220;28;20173;-85
2021/08/17 11:49:20;;;;;;;8.90;6.37;;;;;;;;;;5030871;28;20185;-87
2021/08/17 11:51:47;;;;;;;8.50;6.10;;;;;;;;;;5016605;28;20182;-88
2021/08/17 11:54:14;;;;;;;7.63;5.40;;;;;;;;;;4994897;28;20184;-88
2021/08/17 11:56:40;;;;;;;7.47;6.17;;;;;;;;;;5011209;28;20244;-88
2021/08/17 11:59:06;;;;;;;7.43;6.07;;;;;;;;;;5015132;28;20550;-88
2021/08/17 12:01:32;;;;;;;11.67;6.23;;;;;;;;;;5048237;28;20216;-88
2021/08/17 12:04:09;;;;;;;8.53;5.37;;;;;;;;;;5047559;28;20170;-88
2021/08/17 12:06:35;;;;;;;7.47;5.60;;;;;;;;;;5030294;28;20307;-88
2021/08/17 12:09:18;;;;;;;7.27;5.70;;;;;;;;;;5021424;28;20216;-88
2021/08/17 12:12:00;;;;;;;8.50;6.47;;;;;;;;;;5013745;28;20690;-88
2021/08/17 12:14:26;;;;;;;12.48;7.45;;;;;;;;;;5012896;28;20424;-89
2021/08/17 12:16:56;;;;;;;7.13;6.17;;;;;;;;;;5013488;28;20224;-89
2021/08/17 12:19:22;;;;;;;9.53;6.30;;;;;;;;;;5013064;28;20186;-89
2021/08/17 12:21:48;;;;;;;8.63;5.77;;;;;;;;;;5031627;28;20196;-88
2021/08/17 12:24:21;;;;;;;9.70;5.83;;;;;;;;;;5014564;28;20644;-88
2021/08/17 12:26:58;;;;;;;11.07;6.37;;;;;;;;;;5017823;28;20539;-89
2021/08/17 12:29:25;;;;;;;9.47;5.73;;;;;;;;;;5035522;28;20209;-85
2021/08/17 12:31:52;;;;;;;45.97;10.17;;;;;;;;;;5034353;28;20212;-86
2021/08/17 12:34:19;;;;;;;13.67;6.50;;;;;;;;;;5017650;28;20201;-86
2021/08/17 12:36:52;;;;;;;18.27;6.93;;;;;;;;;;5035255;28;20645;-86
2021/08/17 12:39:20;;;;;;;12.87;6.70;;;;;;;;;;5034043;28;20225;-87
2021/08/17 12:41:54;;;;;;;9.17;6.27;;;;;;;;;;5033497;28;20189;-87
2021/08/17 12:44:30;;;;;;;14.13;6.20;;;;;;;;;;5033488;28;20181;-87
2021/08/17 12:46:57;;;;;;;11.07;5.90;;;;;;;;;;5018224;28;20532;-87
2021/08/17 12:49:23;;;;;;;9.97;6.70;;;;;;;;;;5017722;28;20170;-87
2021/08/17 12:51:49;;;;;;;13.20;6.30;;;;;;;;;;5018175;28;20178;-86
2021/08/17 12:54:15;;;;;;;11.07;6.50;;;;;;;;;;5034911;28;21050;-86
2021/08/17 12:56:41;;;;;;;8.70;6.17;;;;;;;;;;5017903;28;22553;-87
2021/08/17 12:59:07;;;;;;;11.27;5.50;;;;;;;;;;5016474;28;20519;-86
2021/08/17 13:01:33;;;;;;;8.07;5.80;;;;;;;;;;5017436;28;20196;-86
2021/08/17 13:03:59;;;;;;;10.23;6.33;;;;;;;;;;5018867;28;20190;-85
2021/08/17 13:06:25;;;;;;;11.70;6.30;;;;;;;;;;5019885;28;20205;-86
2021/08/17 13:08:51;;;;;;;10.07;5.77;;;;;;;;;;5019068;28;20174;-85
2021/08/17 13:11:18;;;;;;;11.07;6.10;;;;;;;;;;5018696;28;20190;-86
2021/08/17 13:13:44;;;;;;;9.50;6.70;;;;;;;;;;5008355;28;20186;-85
2021/08/17 13:16:10;;;;;;;8.00;5.70;;;;;;;;;;5035500;28;20174;-85
2021/08/17 13:18:36;;;;;;;11.63;6.70;;;;;;;;;;5035006;28;20200;-86
2021/08/17 13:21:02;;;;;;;7.97;5.57;;;;;;;;;;5018510;28;20198;-85
2021/08/17 13:23:28;;;;;;;10.57;6.10;;;;;;;;;;5013371;28;20197;-86
2021/08/17 13:25:54;;;;;;;11.00;6.40;;;;;;;;;;5030557;28;20200;-85
2021/08/17 13:28:21;;;;;;;8.73;6.33;;;;;;;;;;5025424;28;20193;-85
2021/08/17 13:30:47;;;;;;;10.47;6.47;;;;;;;;;;5039059;28;20182;-86
2021/08/17 13:33:13;;;;;;;7.57;5.87;;;;;;;;;;5018765;28;20174;-86
2021/08/17 13:35:39;;;;;;;10.77;6.13;;;;;;;;;;5018761;28;20194;-86
2021/08/17 13:38:06;;;;;;;7.77;5.63;;;;;;;;;;5018869;28;20186;-86
2021/08/17 13:40:32;;;;;;;8.53;5.43;;;;;;;;;;5019055;28;20651;-86
2021/08/17 13:42:59;;;;;;;8.07;5.57;;;;;;;;;;5019416;28;20629;-86
2021/08/17 13:45:25;;;;;;;8.17;5.27;;;;;;;;;;5018949;28;20193;-86
2021/08/17 13:47:51;;;;;;;6.77;5.17;;;;;;;;;;5019009;28;20232;-85
2021/08/17 13:50:17;;;;;;;6.90;5.93;;;;;;;;;;5014734;28;20206;-86
2021/08/17 13:52:43;;;;;;;6.83;5.50;;;;;;;;;;5007127;28;20184;-85
2021/08/17 13:55:09;;;;;;;7.53;5.67;;;;;;;;;;5017994;28;20329;-86
2021/08/17 13:57:35;;;;;;;7.07;5.30;;;;;;;;;;5018793;28;20182;-86
2021/08/17 14:00:02;;;;;;;5.40;4.90;;;;;;;;;;5026093;28;20182;-85
2021/08/17 14:02:28;;;;;;;7.87;6.23;;;;;;;;;;5036804;28;20276;-86
2021/08/17 14:04:54;;;;;;;8.63;5.60;;;;;;;;;;5036239;28;20210;-86
2021/08/17 14:07:20;;;;;;;6.80;6.10;;;;;;;;;;5038387;28;20205;-86
2021/08/17 14:09:47;;;;;;;6.83;5.87;;;;;;;;;;5022315;28;20282;-86
2021/08/17 14:12:13;;;;;;;6.93;6.03;;;;;;;;;;5036466;28;20829;-86
2021/08/17 14:14:39;;;;;;;11.60;6.63;;;;;;;;;;5018322;28;20180;-86
2021/08/17 14:17:05;;;;;;;7.40;5.57;;;;;;;;;;5019343;28;20236;-86
2021/08/17 14:19:31;;;;;;;8.33;5.97;;;;;;;;;;5021230;28;20928;-86
2021/08/17 14:21:57;;;;;;;7.87;5.50;;;;;;;;;;5018037;28;20216;-86
2021/08/17 14:24:23;;;;;;;9.30;6.10;;;;;;;;;;5019728;28;20179;-86
2021/08/17 14:26:49;;;;;;;8.37;6.63;;;;;;;;;;5018246;28;20664;-86
2021/08/17 14:29:16;;;;;;;7.07;5.87;;;;;;;;;;5016573;28;20188;-86